sensor_id;sensor_type;location;lat;lon;timestamp;temperature;humidity
49222;DHT22;35047;37.588;-122.048;2022-07-29T00:00:50;31.90;45.20
49222;DHT22;35047;37.588;-122.048;2022-07-29T00:03:18;31.80;45.20
49222;DHT22;35047;37.588;-122.048;2022-07-29T00:05:44;31.60;45.30
49222;DHT22;35047;37.588;-122.048;2022-07-29T00:08:11;31.50;45.90
49222;DHT22;35047;37.588;-122.048;2022-07-29T00:10:38;31.40;45.90
49222;DHT22;35047;37.588;-122.048;2022-07-29T00:13:04;31.30;46.70
49222;DHT22;35047;37.588;-122.048;2022-07-29T00:15:31;31.50;46.10
49222;DHT22;35047;37.588;-122.048;2022-07-29T00:17:58;31.60;46.20
49222;DHT22;35047;37.588;-122.048;2022-07-29T00:20:25;31.70;46.10
49222;DHT22;35047;37.588;-122.048;2022-07-29T00:22:53;31.60;46.40
49222;DHT22;35047;37.588;-122.048;2022-07-29T00:25:20;31.60;46.30
49222;DHT22;35047;37.588;-122.048;2022-07-29T00:27:47;31.70;46.10
49222;DHT22;35047;37.588;-122.048;2022-07-29T00:30:14;31.90;46.50
49222;DHT22;35047;37.588;-122.048;2022-07-29T00:32:41;32.00;45.80
49222;DHT22;35047;37.588;-122.048;2022-07-29T00:35:08;32.00;45.50
49222;DHT22;35047;37.588;-122.048;2022-07-29T00:37:53;32.20;45.50
49222;DHT22;35047;37.588;-122.048;2022-07-29T00:40:20;32.00;46.40
49222;DHT22;35047;37.588;-122.048;2022-07-29T00:42:48;32.10;46.30
49222;DHT22;35047;37.588;-122.048;2022-07-29T00:45:16;32.20;45.60
49222;DHT22;35047;37.588;-122.048;2022-07-29T00:47:43;32.10;45.50
49222;DHT22;35047;37.588;-122.048;2022-07-29T00:50:10;31.80;46.30
49222;DHT22;35047;37.588;-122.048;2022-07-29T00:52:40;31.60;55.80
49222;DHT22;35047;37.588;-122.048;2022-07-29T00:55:10;31.30;47.70
49222;DHT22;35047;37.588;-122.048;2022-07-29T00:57:37;31.10;48.10
49222;DHT22;35047;37.588;-122.048;2022-07-29T01:00:06;30.80;47.90
49222;DHT22;35047;37.588;-122.048;2022-07-29T01:02:33;30.60;47.90
49222;DHT22;35047;37.588;-122.048;2022-07-29T01:05:02;30.40;48.20
49222;DHT22;35047;37.588;-122.048;2022-07-29T01:07:31;30.10;48.50
49222;DHT22;35047;37.588;-122.048;2022-07-29T01:09:58;30.00;49.10
49222;DHT22;35047;37.588;-122.048;2022-07-29T01:12:29;30.00;49.80
49222;DHT22;35047;37.588;-122.048;2022-07-29T01:15:00;30.00;49.40
49222;DHT22;35047;37.588;-122.048;2022-07-29T01:20:58;29.80;49.90
49222;DHT22;35047;37.588;-122.048;2022-07-29T01:26:52;30.00;50.00
49222;DHT22;35047;37.588;-122.048;2022-07-29T01:29:38;30.10;49.60
49222;DHT22;35047;37.588;-122.048;2022-07-29T01:32:22;30.30;48.90
49222;DHT22;35047;37.588;-122.048;2022-07-29T01:37:50;30.30;48.70
49222;DHT22;35047;37.588;-122.048;2022-07-29T01:42:57;30.20;48.60
49222;DHT22;35047;37.588;-122.048;2022-07-29T01:45:44;30.20;48.60
49222;DHT22;35047;37.588;-122.048;2022-07-29T01:48:44;30.10;48.80
49222;DHT22;35047;37.588;-122.048;2022-07-29T01:51:14;30.00;49.00
49222;DHT22;35047;37.588;-122.048;2022-07-29T01:56:44;29.50;49.50
49222;DHT22;35047;37.588;-122.048;2022-07-29T01:59:12;29.30;50.20
49222;DHT22;35047;37.588;-122.048;2022-07-29T02:01:41;29.10;50.40
49222;DHT22;35047;37.588;-122.048;2022-07-29T02:04:11;28.80;50.50
49222;DHT22;35047;37.588;-122.048;2022-07-29T02:06:41;28.70;51.00
49222;DHT22;35047;37.588;-122.048;2022-07-29T02:09:10;28.60;51.10
49222;DHT22;35047;37.588;-122.048;2022-07-29T02:11:38;28.30;51.20
49222;DHT22;35047;37.588;-122.048;2022-07-29T02:14:07;28.10;51.80
49222;DHT22;35047;37.588;-122.048;2022-07-29T02:16:35;28.00;52.20
49222;DHT22;35047;37.588;-122.048;2022-07-29T02:19:03;27.80;52.40
49222;DHT22;35047;37.588;-122.048;2022-07-29T02:21:32;27.70;52.50
49222;DHT22;35047;37.588;-122.048;2022-07-29T02:24:01;27.60;53.00
49222;DHT22;35047;37.588;-122.048;2022-07-29T02:26:29;27.50;52.90
49222;DHT22;35047;37.588;-122.048;2022-07-29T02:28:57;27.40;53.00
49222;DHT22;35047;37.588;-122.048;2022-07-29T02:31:28;27.40;53.40
49222;DHT22;35047;37.588;-122.048;2022-07-29T02:33:57;27.40;53.60
49222;DHT22;35047;37.588;-122.048;2022-07-29T02:36:26;27.20;53.80
49222;DHT22;35047;37.588;-122.048;2022-07-29T02:38:55;27.10;54.00
49222;DHT22;35047;37.588;-122.048;2022-07-29T02:41:28;27.00;54.00
49222;DHT22;35047;37.588;-122.048;2022-07-29T02:43:57;26.80;54.50
49222;DHT22;35047;37.588;-122.048;2022-07-29T02:46:36;26.80;54.60
49222;DHT22;35047;37.588;-122.048;2022-07-29T02:49:06;26.70;54.80
49222;DHT22;35047;37.588;-122.048;2022-07-29T02:54:11;26.50;55.60
49222;DHT22;35047;37.588;-122.048;2022-07-29T02:56:43;26.40;55.60
49222;DHT22;35047;37.588;-122.048;2022-07-29T02:59:11;26.30;56.10
49222;DHT22;35047;37.588;-122.048;2022-07-29T03:01:42;26.20;56.00
49222;DHT22;35047;37.588;-122.048;2022-07-29T03:04:10;26.10;56.20
49222;DHT22;35047;37.588;-122.048;2022-07-29T03:06:39;26.00;56.50
49222;DHT22;35047;37.588;-122.048;2022-07-29T03:09:08;25.90;56.90
49222;DHT22;35047;37.588;-122.048;2022-07-29T03:11:37;25.80;57.10
49222;DHT22;35047;37.588;-122.048;2022-07-29T03:14:05;25.80;57.20
49222;DHT22;35047;37.588;-122.048;2022-07-29T03:16:34;25.70;57.40
49222;DHT22;35047;37.588;-122.048;2022-07-29T03:19:03;25.60;57.80
49222;DHT22;35047;37.588;-122.048;2022-07-29T03:21:30;25.50;58.10
49222;DHT22;35047;37.588;-122.048;2022-07-29T03:23:57;25.40;58.40
49222;DHT22;35047;37.588;-122.048;2022-07-29T03:26:24;25.30;58.70
49222;DHT22;35047;37.588;-122.048;2022-07-29T03:28:51;25.20;58.70
49222;DHT22;35047;37.588;-122.048;2022-07-29T03:31:18;25.30;58.80
49222;DHT22;35047;37.588;-122.048;2022-07-29T03:33:45;25.30;58.70
49222;DHT22;35047;37.588;-122.048;2022-07-29T03:36:12;25.10;58.90
49222;DHT22;35047;37.588;-122.048;2022-07-29T03:38:41;25.10;59.10
49222;DHT22;35047;37.588;-122.048;2022-07-29T03:41:11;25.00;59.60
49222;DHT22;35047;37.588;-122.048;2022-07-29T03:43:41;24.90;59.70
49222;DHT22;35047;37.588;-122.048;2022-07-29T03:46:09;24.80;60.60
49222;DHT22;35047;37.588;-122.048;2022-07-29T03:48:39;24.80;60.30
49222;DHT22;35047;37.588;-122.048;2022-07-29T03:51:08;24.80;60.50
49222;DHT22;35047;37.588;-122.048;2022-07-29T03:53:35;24.80;60.50
49222;DHT22;35047;37.588;-122.048;2022-07-29T03:56:03;24.80;60.70
49222;DHT22;35047;37.588;-122.048;2022-07-29T03:58:31;24.80;60.70
49222;DHT22;35047;37.588;-122.048;2022-07-29T04:00:59;24.70;60.60
49222;DHT22;35047;37.588;-122.048;2022-07-29T04:03:25;24.70;60.70
49222;DHT22;35047;37.588;-122.048;2022-07-29T04:06:05;24.70;60.50
49222;DHT22;35047;37.588;-122.048;2022-07-29T04:08:33;24.70;60.40
49222;DHT22;35047;37.588;-122.048;2022-07-29T04:11:01;24.70;60.50
49222;DHT22;35047;37.588;-122.048;2022-07-29T04:13:28;24.70;60.50
49222;DHT22;35047;37.588;-122.048;2022-07-29T04:15:55;24.70;60.50
49222;DHT22;35047;37.588;-122.048;2022-07-29T04:18:21;24.60;61.00
49222;DHT22;35047;37.588;-122.048;2022-07-29T04:20:49;24.60;61.10
49222;DHT22;35047;37.588;-122.048;2022-07-29T04:23:15;24.50;60.90
49222;DHT22;35047;37.588;-122.048;2022-07-29T04:25:43;24.50;60.80
49222;DHT22;35047;37.588;-122.048;2022-07-29T04:28:10;24.50;61.00
49222;DHT22;35047;37.588;-122.048;2022-07-29T04:30:37;24.50;61.20
49222;DHT22;35047;37.588;-122.048;2022-07-29T04:33:06;24.40;61.20
49222;DHT22;35047;37.588;-122.048;2022-07-29T04:35:37;24.40;61.30
49222;DHT22;35047;37.588;-122.048;2022-07-29T04:38:05;24.40;61.30
49222;DHT22;35047;37.588;-122.048;2022-07-29T04:40:33;24.30;61.50
49222;DHT22;35047;37.588;-122.048;2022-07-29T04:43:00;24.30;61.50
49222;DHT22;35047;37.588;-122.048;2022-07-29T04:45:28;24.30;61.70
49222;DHT22;35047;37.588;-122.048;2022-07-29T04:47:55;24.30;62.00
49222;DHT22;35047;37.588;-122.048;2022-07-29T04:50:22;24.30;62.00
49222;DHT22;35047;37.588;-122.048;2022-07-29T04:52:49;24.30;61.80
49222;DHT22;35047;37.588;-122.048;2022-07-29T04:55:15;24.30;61.70
49222;DHT22;35047;37.588;-122.048;2022-07-29T04:57:43;24.30;61.70
49222;DHT22;35047;37.588;-122.048;2022-07-29T05:00:09;24.30;61.70
49222;DHT22;35047;37.588;-122.048;2022-07-29T05:02:37;24.20;61.80
49222;DHT22;35047;37.588;-122.048;2022-07-29T05:05:04;24.10;62.10
49222;DHT22;35047;37.588;-122.048;2022-07-29T05:07:30;24.10;62.60
49222;DHT22;35047;37.588;-122.048;2022-07-29T05:09:57;24.10;62.60
49222;DHT22;35047;37.588;-122.048;2022-07-29T05:12:24;24.00;62.70
49222;DHT22;35047;37.588;-122.048;2022-07-29T05:14:51;24.10;62.50
49222;DHT22;35047;37.588;-122.048;2022-07-29T05:17:18;24.00;62.40
49222;DHT22;35047;37.588;-122.048;2022-07-29T05:19:45;23.90;62.60
49222;DHT22;35047;37.588;-122.048;2022-07-29T05:22:12;23.90;62.70
49222;DHT22;35047;37.588;-122.048;2022-07-29T05:24:39;24.00;62.60
49222;DHT22;35047;37.588;-122.048;2022-07-29T05:27:06;23.90;63.00
49222;DHT22;35047;37.588;-122.048;2022-07-29T05:29:33;23.80;63.10
49222;DHT22;35047;37.588;-122.048;2022-07-29T05:32:01;23.90;63.10
49222;DHT22;35047;37.588;-122.048;2022-07-29T05:34:28;23.80;63.30
49222;DHT22;35047;37.588;-122.048;2022-07-29T05:36:55;23.80;63.60
49222;DHT22;35047;37.588;-122.048;2022-07-29T05:39:21;23.80;63.70
49222;DHT22;35047;37.588;-122.048;2022-07-29T05:41:48;23.80;63.90
49222;DHT22;35047;37.588;-122.048;2022-07-29T05:44:14;23.80;63.90
49222;DHT22;35047;37.588;-122.048;2022-07-29T05:46:42;23.70;63.80
49222;DHT22;35047;37.588;-122.048;2022-07-29T05:49:08;23.70;63.60
49222;DHT22;35047;37.588;-122.048;2022-07-29T05:51:35;23.70;63.60
49222;DHT22;35047;37.588;-122.048;2022-07-29T05:54:02;23.80;63.50
49222;DHT22;35047;37.588;-122.048;2022-07-29T05:56:29;23.80;63.60
49222;DHT22;35047;37.588;-122.048;2022-07-29T05:58:56;23.80;63.70
49222;DHT22;35047;37.588;-122.048;2022-07-29T06:01:22;23.70;63.80
49222;DHT22;35047;37.588;-122.048;2022-07-29T06:03:50;23.70;63.90
49222;DHT22;35047;37.588;-122.048;2022-07-29T06:06:16;23.70;64.10
49222;DHT22;35047;37.588;-122.048;2022-07-29T06:08:43;23.80;64.10
49222;DHT22;35047;37.588;-122.048;2022-07-29T06:11:10;23.80;63.90
49222;DHT22;35047;37.588;-122.048;2022-07-29T06:13:37;23.80;63.80
49222;DHT22;35047;37.588;-122.048;2022-07-29T06:16:04;23.80;63.90
49222;DHT22;35047;37.588;-122.048;2022-07-29T06:18:31;23.80;64.00
49222;DHT22;35047;37.588;-122.048;2022-07-29T06:20:58;23.80;63.80
49222;DHT22;35047;37.588;-122.048;2022-07-29T06:23:25;23.80;63.90
49222;DHT22;35047;37.588;-122.048;2022-07-29T06:25:53;23.80;63.90
49222;DHT22;35047;37.588;-122.048;2022-07-29T06:28:20;23.80;64.20
49222;DHT22;35047;37.588;-122.048;2022-07-29T06:30:46;23.80;64.20
49222;DHT22;35047;37.588;-122.048;2022-07-29T06:33:17;23.80;64.20
49222;DHT22;35047;37.588;-122.048;2022-07-29T06:35:44;23.80;63.90
49222;DHT22;35047;37.588;-122.048;2022-07-29T06:38:13;23.80;64.00
49222;DHT22;35047;37.588;-122.048;2022-07-29T06:40:44;23.70;64.10
49222;DHT22;35047;37.588;-122.048;2022-07-29T06:43:30;23.70;64.40
49222;DHT22;35047;37.588;-122.048;2022-07-29T06:46:04;23.70;64.70
49222;DHT22;35047;37.588;-122.048;2022-07-29T06:48:32;23.70;64.90
49222;DHT22;35047;37.588;-122.048;2022-07-29T06:50:59;23.70;64.70
49222;DHT22;35047;37.588;-122.048;2022-07-29T06:53:26;23.70;64.70
49222;DHT22;35047;37.588;-122.048;2022-07-29T06:55:54;23.80;64.50
49222;DHT22;35047;37.588;-122.048;2022-07-29T06:58:21;23.80;64.80
49222;DHT22;35047;37.588;-122.048;2022-07-29T07:00:47;23.80;64.90
49222;DHT22;35047;37.588;-122.048;2022-07-29T07:03:15;23.80;64.70
49222;DHT22;35047;37.588;-122.048;2022-07-29T07:05:42;23.80;64.70
49222;DHT22;35047;37.588;-122.048;2022-07-29T07:08:09;23.80;64.70
49222;DHT22;35047;37.588;-122.048;2022-07-29T07:10:37;23.80;64.70
49222;DHT22;35047;37.588;-122.048;2022-07-29T07:13:05;23.80;64.70
49222;DHT22;35047;37.588;-122.048;2022-07-29T07:15:32;23.80;64.80
49222;DHT22;35047;37.588;-122.048;2022-07-29T07:17:59;23.80;65.20
49222;DHT22;35047;37.588;-122.048;2022-07-29T07:20:26;23.70;65.30
49222;DHT22;35047;37.588;-122.048;2022-07-29T07:22:53;23.70;65.20
49222;DHT22;35047;37.588;-122.048;2022-07-29T07:25:19;23.70;65.50
49222;DHT22;35047;37.588;-122.048;2022-07-29T07:27:46;23.70;65.50
49222;DHT22;35047;37.588;-122.048;2022-07-29T07:30:13;23.70;65.10
49222;DHT22;35047;37.588;-122.048;2022-07-29T07:32:40;23.80;65.20
49222;DHT22;35047;37.588;-122.048;2022-07-29T07:35:08;23.70;65.10
49222;DHT22;35047;37.588;-122.048;2022-07-29T07:37:36;23.70;65.40
49222;DHT22;35047;37.588;-122.048;2022-07-29T07:40:03;23.70;65.20
49222;DHT22;35047;37.588;-122.048;2022-07-29T07:42:31;23.80;65.40
49222;DHT22;35047;37.588;-122.048;2022-07-29T07:44:58;23.70;65.90
49222;DHT22;35047;37.588;-122.048;2022-07-29T07:47:24;23.70;65.20
49222;DHT22;35047;37.588;-122.048;2022-07-29T07:50:11;23.60;65.50
49222;DHT22;35047;37.588;-122.048;2022-07-29T07:52:52;23.70;65.60
49222;DHT22;35047;37.588;-122.048;2022-07-29T07:55:21;23.70;65.50
49222;DHT22;35047;37.588;-122.048;2022-07-29T07:57:48;23.70;65.40
49222;DHT22;35047;37.588;-122.048;2022-07-29T08:00:15;23.80;65.50
49222;DHT22;35047;37.588;-122.048;2022-07-29T08:02:43;23.80;65.20
49222;DHT22;35047;37.588;-122.048;2022-07-29T08:05:11;23.80;65.00
49222;DHT22;35047;37.588;-122.048;2022-07-29T08:07:44;23.80;64.60
49222;DHT22;35047;37.588;-122.048;2022-07-29T08:10:11;23.90;64.50
49222;DHT22;35047;37.588;-122.048;2022-07-29T08:12:39;23.90;64.30
49222;DHT22;35047;37.588;-122.048;2022-07-29T08:15:07;24.00;64.10
49222;DHT22;35047;37.588;-122.048;2022-07-29T08:17:34;24.00;63.90
49222;DHT22;35047;37.588;-122.048;2022-07-29T08:20:00;24.00;63.90
49222;DHT22;35047;37.588;-122.048;2022-07-29T08:22:28;24.00;64.00
49222;DHT22;35047;37.588;-122.048;2022-07-29T08:24:55;23.90;64.00
49222;DHT22;35047;37.588;-122.048;2022-07-29T08:27:22;23.90;64.30
49222;DHT22;35047;37.588;-122.048;2022-07-29T08:29:49;23.90;64.10
49222;DHT22;35047;37.588;-122.048;2022-07-29T08:32:15;23.80;65.10
49222;DHT22;35047;37.588;-122.048;2022-07-29T08:34:42;23.70;64.20
49222;DHT22;35047;37.588;-122.048;2022-07-29T08:37:12;23.80;64.40
49222;DHT22;35047;37.588;-122.048;2022-07-29T08:39:39;23.80;64.40
49222;DHT22;35047;37.588;-122.048;2022-07-29T08:42:07;23.90;64.30
49222;DHT22;35047;37.588;-122.048;2022-07-29T08:44:33;24.00;64.20
49222;DHT22;35047;37.588;-122.048;2022-07-29T08:47:01;24.00;64.10
49222;DHT22;35047;37.588;-122.048;2022-07-29T08:49:28;24.00;63.90
49222;DHT22;35047;37.588;-122.048;2022-07-29T08:51:55;24.00;63.90
49222;DHT22;35047;37.588;-122.048;2022-07-29T08:54:23;24.00;63.90
49222;DHT22;35047;37.588;-122.048;2022-07-29T08:56:51;24.00;64.00
49222;DHT22;35047;37.588;-122.048;2022-07-29T08:59:20;24.10;63.90
49222;DHT22;35047;37.588;-122.048;2022-07-29T09:01:48;24.10;63.70
49222;DHT22;35047;37.588;-122.048;2022-07-29T09:04:17;24.10;63.60
49222;DHT22;35047;37.588;-122.048;2022-07-29T09:06:51;24.10;63.50
49222;DHT22;35047;37.588;-122.048;2022-07-29T09:09:18;24.20;63.50
49222;DHT22;35047;37.588;-122.048;2022-07-29T09:11:44;24.20;63.60
49222;DHT22;35047;37.588;-122.048;2022-07-29T09:14:12;24.20;63.40
49222;DHT22;35047;37.588;-122.048;2022-07-29T09:16:47;24.20;63.50
49222;DHT22;35047;37.588;-122.048;2022-07-29T09:19:21;24.30;63.40
49222;DHT22;35047;37.588;-122.048;2022-07-29T09:21:48;24.20;63.20
49222;DHT22;35047;37.588;-122.048;2022-07-29T09:24:24;24.20;63.60
49222;DHT22;35047;37.588;-122.048;2022-07-29T09:26:52;24.20;63.50
49222;DHT22;35047;37.588;-122.048;2022-07-29T09:29:23;24.20;63.40
49222;DHT22;35047;37.588;-122.048;2022-07-29T09:31:54;24.20;63.30
49222;DHT22;35047;37.588;-122.048;2022-07-29T09:34:27;24.20;63.40
49222;DHT22;35047;37.588;-122.048;2022-07-29T09:36:57;24.10;63.40
49222;DHT22;35047;37.588;-122.048;2022-07-29T09:41:57;24.20;63.50
49222;DHT22;35047;37.588;-122.048;2022-07-29T09:44:25;24.20;63.50
49222;DHT22;35047;37.588;-122.048;2022-07-29T09:47:04;24.20;63.40
49222;DHT22;35047;37.588;-122.048;2022-07-29T09:49:35;24.20;63.50
49222;DHT22;35047;37.588;-122.048;2022-07-29T09:52:08;24.20;63.50
49222;DHT22;35047;37.588;-122.048;2022-07-29T09:54:36;24.20;63.50
49222;DHT22;35047;37.588;-122.048;2022-07-29T09:57:24;24.20;63.50
49222;DHT22;35047;37.588;-122.048;2022-07-29T10:00:02;24.20;63.60
49222;DHT22;35047;37.588;-122.048;2022-07-29T10:02:33;24.10;63.70
49222;DHT22;35047;37.588;-122.048;2022-07-29T10:05:02;24.10;63.80
49222;DHT22;35047;37.588;-122.048;2022-07-29T10:07:46;24.20;63.70
49222;DHT22;35047;37.588;-122.048;2022-07-29T10:10:34;24.20;63.50
49222;DHT22;35047;37.588;-122.048;2022-07-29T10:13:07;24.20;63.50
49222;DHT22;35047;37.588;-122.048;2022-07-29T10:15:35;24.20;63.50
49222;DHT22;35047;37.588;-122.048;2022-07-29T10:18:05;24.30;63.70
49222;DHT22;35047;37.588;-122.048;2022-07-29T10:20:31;24.30;63.50
49222;DHT22;35047;37.588;-122.048;2022-07-29T10:22:59;24.30;63.40
49222;DHT22;35047;37.588;-122.048;2022-07-29T10:25:26;24.20;63.60
49222;DHT22;35047;37.588;-122.048;2022-07-29T10:27:54;24.20;63.50
49222;DHT22;35047;37.588;-122.048;2022-07-29T10:30:22;24.30;63.50
49222;DHT22;35047;37.588;-122.048;2022-07-29T10:33:15;24.30;63.50
49222;DHT22;35047;37.588;-122.048;2022-07-29T10:44:22;24.10;63.90
49222;DHT22;35047;37.588;-122.048;2022-07-29T10:46:51;24.10;63.90
49222;DHT22;35047;37.588;-122.048;2022-07-29T10:49:19;24.10;63.70
49222;DHT22;35047;37.588;-122.048;2022-07-29T10:57:24;24.10;63.50
49222;DHT22;35047;37.588;-122.048;2022-07-29T11:05:11;24.20;63.40
49222;DHT22;35047;37.588;-122.048;2022-07-29T11:07:40;24.10;63.70
49222;DHT22;35047;37.588;-122.048;2022-07-29T11:10:27;24.10;63.90
49222;DHT22;35047;37.588;-122.048;2022-07-29T11:12:53;24.10;63.80
49222;DHT22;35047;37.588;-122.048;2022-07-29T11:15:21;24.10;63.60
49222;DHT22;35047;37.588;-122.048;2022-07-29T11:20:37;24.10;63.50
49222;DHT22;35047;37.588;-122.048;2022-07-29T11:23:29;24.10;63.50
49222;DHT22;35047;37.588;-122.048;2022-07-29T11:26:13;24.10;63.70
49222;DHT22;35047;37.588;-122.048;2022-07-29T11:28:54;24.10;63.70
49222;DHT22;35047;37.588;-122.048;2022-07-29T11:44:54;24.00;64.20
49222;DHT22;35047;37.588;-122.048;2022-07-29T11:47:27;24.00;64.10
49222;DHT22;35047;37.588;-122.048;2022-07-29T11:49:58;24.00;64.10
49222;DHT22;35047;37.588;-122.048;2022-07-29T11:52:41;24.00;63.70
49222;DHT22;35047;37.588;-122.048;2022-07-29T11:55:17;24.00;63.80
49222;DHT22;35047;37.588;-122.048;2022-07-29T11:57:49;24.00;63.70
49222;DHT22;35047;37.588;-122.048;2022-07-29T12:00:38;24.00;63.90
49222;DHT22;35047;37.588;-122.048;2022-07-29T12:03:10;24.00;63.90
49222;DHT22;35047;37.588;-122.048;2022-07-29T12:05:44;23.90;64.20
49222;DHT22;35047;37.588;-122.048;2022-07-29T12:08:22;23.90;64.10
49222;DHT22;35047;37.588;-122.048;2022-07-29T12:10:52;23.90;64.20
49222;DHT22;35047;37.588;-122.048;2022-07-29T12:13:20;23.90;64.20
49222;DHT22;35047;37.588;-122.048;2022-07-29T12:15:54;23.90;64.10
49222;DHT22;35047;37.588;-122.048;2022-07-29T12:18:23;23.90;63.70
49222;DHT22;35047;37.588;-122.048;2022-07-29T12:20:57;23.90;63.90
49222;DHT22;35047;37.588;-122.048;2022-07-29T12:23:24;23.80;63.90
49222;DHT22;35047;37.588;-122.048;2022-07-29T12:25:51;23.90;63.90
49222;DHT22;35047;37.588;-122.048;2022-07-29T12:28:17;23.80;64.50
49222;DHT22;35047;37.588;-122.048;2022-07-29T12:30:48;23.80;63.90
49222;DHT22;35047;37.588;-122.048;2022-07-29T12:33:27;23.80;64.00
49222;DHT22;35047;37.588;-122.048;2022-07-29T12:35:58;23.90;64.00
49222;DHT22;35047;37.588;-122.048;2022-07-29T12:38:26;23.90;64.10
49222;DHT22;35047;37.588;-122.048;2022-07-29T12:40:54;24.00;63.70
49222;DHT22;35047;37.588;-122.048;2022-07-29T12:43:23;23.80;64.10
49222;DHT22;35047;37.588;-122.048;2022-07-29T12:45:55;23.80;64.30
49222;DHT22;35047;37.588;-122.048;2022-07-29T12:48:39;23.90;64.40
49222;DHT22;35047;37.588;-122.048;2022-07-29T12:51:06;23.90;64.30
49222;DHT22;35047;37.588;-122.048;2022-07-29T12:53:36;23.90;64.30
49222;DHT22;35047;37.588;-122.048;2022-07-29T12:56:04;23.90;64.20
49222;DHT22;35047;37.588;-122.048;2022-07-29T13:01:11;24.00;64.10
49222;DHT22;35047;37.588;-122.048;2022-07-29T13:03:45;23.90;64.00
49222;DHT22;35047;37.588;-122.048;2022-07-29T13:06:32;23.90;64.30
49222;DHT22;35047;37.588;-122.048;2022-07-29T13:09:04;23.90;64.10
49222;DHT22;35047;37.588;-122.048;2022-07-29T13:11:37;23.90;63.90
49222;DHT22;35047;37.588;-122.048;2022-07-29T13:14:05;24.00;63.90
49222;DHT22;35047;37.588;-122.048;2022-07-29T13:16:32;23.90;63.80
49222;DHT22;35047;37.588;-122.048;2022-07-29T13:19:09;23.90;63.80
49222;DHT22;35047;37.588;-122.048;2022-07-29T13:21:38;23.90;63.90
49222;DHT22;35047;37.588;-122.048;2022-07-29T13:24:08;23.90;63.80
49222;DHT22;35047;37.588;-122.048;2022-07-29T13:26:39;23.90;63.60
49222;DHT22;35047;37.588;-122.048;2022-07-29T13:29:06;23.90;63.60
49222;DHT22;35047;37.588;-122.048;2022-07-29T13:31:33;23.90;63.90
49222;DHT22;35047;37.588;-122.048;2022-07-29T13:34:01;23.90;63.90
49222;DHT22;35047;37.588;-122.048;2022-07-29T13:36:27;23.90;63.80
49222;DHT22;35047;37.588;-122.048;2022-07-29T13:38:54;23.90;63.70
49222;DHT22;35047;37.588;-122.048;2022-07-29T13:41:21;23.90;63.60
49222;DHT22;35047;37.588;-122.048;2022-07-29T13:43:47;24.00;63.70
49222;DHT22;35047;37.588;-122.048;2022-07-29T13:46:14;23.90;63.60
49222;DHT22;35047;37.588;-122.048;2022-07-29T13:48:41;23.90;63.60
49222;DHT22;35047;37.588;-122.048;2022-07-29T13:51:08;23.90;63.60
49222;DHT22;35047;37.588;-122.048;2022-07-29T13:53:35;23.90;63.60
49222;DHT22;35047;37.588;-122.048;2022-07-29T13:56:01;23.90;63.60
49222;DHT22;35047;37.588;-122.048;2022-07-29T13:58:32;24.00;63.60
49222;DHT22;35047;37.588;-122.048;2022-07-29T14:00:59;24.00;63.70
49222;DHT22;35047;37.588;-122.048;2022-07-29T14:03:27;24.00;64.30
49222;DHT22;35047;37.588;-122.048;2022-07-29T14:05:54;24.00;63.70
49222;DHT22;35047;37.588;-122.048;2022-07-29T14:08:20;24.00;63.60
49222;DHT22;35047;37.588;-122.048;2022-07-29T14:10:48;24.00;63.60
49222;DHT22;35047;37.588;-122.048;2022-07-29T14:13:15;24.10;63.90
49222;DHT22;35047;37.588;-122.048;2022-07-29T14:15:42;24.10;63.70
49222;DHT22;35047;37.588;-122.048;2022-07-29T14:18:09;24.10;63.50
49222;DHT22;35047;37.588;-122.048;2022-07-29T14:20:36;24.10;63.00
49222;DHT22;35047;37.588;-122.048;2022-07-29T14:23:03;24.10;63.00
49222;DHT22;35047;37.588;-122.048;2022-07-29T14:25:29;24.10;63.10
49222;DHT22;35047;37.588;-122.048;2022-07-29T14:27:56;24.20;63.00
49222;DHT22;35047;37.588;-122.048;2022-07-29T14:30:23;24.20;63.00
49222;DHT22;35047;37.588;-122.048;2022-07-29T14:32:50;24.30;62.90
49222;DHT22;35047;37.588;-122.048;2022-07-29T14:35:16;24.20;62.70
49222;DHT22;35047;37.588;-122.048;2022-07-29T14:37:43;24.20;63.10
49222;DHT22;35047;37.588;-122.048;2022-07-29T14:40:10;24.20;63.00
49222;DHT22;35047;37.588;-122.048;2022-07-29T14:42:37;24.30;63.00
49222;DHT22;35047;37.588;-122.048;2022-07-29T14:45:07;24.30;63.10
49222;DHT22;35047;37.588;-122.048;2022-07-29T14:47:34;24.30;62.90
49222;DHT22;35047;37.588;-122.048;2022-07-29T14:50:01;24.40;63.20
49222;DHT22;35047;37.588;-122.048;2022-07-29T14:52:28;24.40;63.30
49222;DHT22;35047;37.588;-122.048;2022-07-29T14:54:54;24.50;63.30
49222;DHT22;35047;37.588;-122.048;2022-07-29T14:57:21;24.60;63.30
49222;DHT22;35047;37.588;-122.048;2022-07-29T14:59:48;24.60;62.60
49222;DHT22;35047;37.588;-122.048;2022-07-29T15:02:14;24.60;62.60
49222;DHT22;35047;37.588;-122.048;2022-07-29T15:04:41;24.70;62.70
49222;DHT22;35047;37.588;-122.048;2022-07-29T15:07:10;24.70;62.60
49222;DHT22;35047;37.588;-122.048;2022-07-29T15:09:37;24.70;62.20
49222;DHT22;35047;37.588;-122.048;2022-07-29T15:12:04;24.80;62.00
49222;DHT22;35047;37.588;-122.048;2022-07-29T15:14:31;24.90;62.40
49222;DHT22;35047;37.588;-122.048;2022-07-29T15:16:58;24.90;61.50
49222;DHT22;35047;37.588;-122.048;2022-07-29T15:19:25;25.00;60.90
49222;DHT22;35047;37.588;-122.048;2022-07-29T15:21:52;25.00;60.90
49222;DHT22;35047;37.588;-122.048;2022-07-29T15:24:19;25.00;61.10
49222;DHT22;35047;37.588;-122.048;2022-07-29T15:26:46;24.90;60.90
49222;DHT22;35047;37.588;-122.048;2022-07-29T15:29:14;25.00;60.80
49222;DHT22;35047;37.588;-122.048;2022-07-29T15:31:40;25.10;61.00
49222;DHT22;35047;37.588;-122.048;2022-07-29T15:34:07;25.10;60.80
49222;DHT22;35047;37.588;-122.048;2022-07-29T15:36:34;25.10;60.60
49222;DHT22;35047;37.588;-122.048;2022-07-29T15:39:01;25.10;60.50
49222;DHT22;35047;37.588;-122.048;2022-07-29T15:41:28;25.10;60.30
49222;DHT22;35047;37.588;-122.048;2022-07-29T15:43:55;25.10;60.30
49222;DHT22;35047;37.588;-122.048;2022-07-29T15:46:21;25.10;59.70
49222;DHT22;35047;37.588;-122.048;2022-07-29T15:49:07;25.20;60.60
49222;DHT22;35047;37.588;-122.048;2022-07-29T15:51:34;25.30;60.20
49222;DHT22;35047;37.588;-122.048;2022-07-29T15:54:03;25.40;60.30
49222;DHT22;35047;37.588;-122.048;2022-07-29T15:56:30;25.50;60.40
49222;DHT22;35047;37.588;-122.048;2022-07-29T15:58:58;25.50;60.20